createdAt,value
2017-11-17T00:01:09.410Z,0
2017-11-17T00:02:21.965Z,0
2017-11-17T00:03:34.561Z,0
2017-11-17T00:04:47.087Z,0
2017-11-17T00:06:00.086Z,0
2017-11-17T00:07:13.261Z,0
2017-11-17T00:08:26.288Z,0
2017-11-17T00:09:39.607Z,0
2017-11-17T00:10:52.162Z,0
2017-11-17T00:12:05.236Z,0
2017-11-17T00:13:17.754Z,0
2017-11-17T00:14:30.777Z,0
2017-11-17T00:15:43.798Z,0
2017-11-17T00:16:56.860Z,0
2017-11-17T00:18:09.413Z,0
2017-11-17T00:19:22.500Z,0
2017-11-17T00:20:35.537Z,0
2017-11-17T00:21:48.737Z,0
2017-11-17T00:23:00.381Z,0
2017-11-17T00:24:13.442Z,0
2017-11-17T00:25:25.955Z,0
2017-11-17T00:26:39.063Z,0
2017-11-17T00:27:52.101Z,0
2017-11-17T00:29:05.324Z,0
2017-11-17T00:30:17.889Z,0
2017-11-17T00:31:31.228Z,0
2017-11-17T00:32:44.250Z,0
2017-11-17T00:33:57.443Z,0
2017-11-17T00:35:10.600Z,0
2017-11-17T00:36:23.563Z,0
2017-11-17T00:37:36.132Z,0
2017-11-17T00:38:49.095Z,0
2017-11-17T00:40:02.116Z,0
2017-11-17T00:41:14.214Z,0
2017-11-17T00:42:27.222Z,0
2017-11-17T00:43:40.223Z,0
2017-11-17T00:44:53.235Z,0
2017-11-17T00:46:05.790Z,0
2017-11-17T00:47:18.799Z,0
2017-11-17T00:48:31.279Z,0
2017-11-17T00:49:43.829Z,0
2017-11-17T00:50:55.879Z,0
2017-11-17T00:52:08.894Z,0
2017-11-17T00:53:21.394Z,0
2017-11-17T00:54:33.960Z,0
2017-11-17T00:55:46.965Z,0
2017-11-17T00:56:59.987Z,0
2017-11-17T00:58:12.510Z,0
2017-11-17T00:59:25.483Z,0
2017-11-17T01:00:38.033Z,0
2017-11-17T01:01:50.625Z,0
2017-11-17T01:03:03.641Z,0
2017-11-17T01:04:16.172Z,0
2017-11-17T01:05:29.399Z,0
2017-11-17T01:06:42.062Z,0
2017-11-17T01:07:55.068Z,0
2017-11-17T01:09:08.060Z,0
2017-11-17T01:10:20.613Z,0
2017-11-17T01:11:32.462Z,0
2017-11-17T01:12:45.509Z,0
2017-11-17T01:13:58.062Z,0
2017-11-17T01:15:10.157Z,0
2017-11-17T01:16:23.177Z,0
2017-11-17T01:17:35.731Z,0
2017-11-17T01:18:48.755Z,0
2017-11-17T01:20:01.829Z,0
2017-11-17T01:21:15.033Z,0
2017-11-17T01:22:27.554Z,0
2017-11-17T01:23:40.092Z,0
2017-11-17T01:24:52.637Z,0
2017-11-17T01:26:05.638Z,0
2017-11-17T01:27:17.721Z,0
2017-11-17T01:28:30.755Z,0
2017-11-17T01:29:43.952Z,0
2017-11-17T01:30:56.964Z,0
2017-11-17T01:32:09.483Z,0
2017-11-17T01:33:22.029Z,0
2017-11-17T01:34:35.059Z,0
2017-11-17T01:35:48.132Z,0
2017-11-17T01:37:01.189Z,0
2017-11-17T01:38:14.216Z,0
2017-11-17T01:39:27.236Z,0
2017-11-17T01:40:40.206Z,0
2017-11-17T01:41:52.693Z,0
2017-11-17T01:43:05.724Z,0
2017-11-17T01:44:18.762Z,0
2017-11-17T01:45:31.737Z,0
2017-11-17T01:46:44.778Z,0
2017-11-17T01:47:57.808Z,0
2017-11-17T01:49:10.340Z,0
2017-11-17T01:50:22.407Z,0
2017-11-17T01:51:35.481Z,0
2017-11-17T01:52:48.483Z,0
2017-11-17T01:54:01.484Z,0
2017-11-17T01:55:14.488Z,0
2017-11-17T01:56:27.517Z,0
2017-11-17T01:57:40.531Z,0
2017-11-17T01:58:53.531Z,0
2017-11-17T02:00:06.088Z,0
2017-11-17T02:01:19.124Z,0
2017-11-17T02:02:32.125Z,0
2017-11-17T02:03:44.621Z,0
2017-11-17T02:04:57.643Z,0
2017-11-17T02:06:10.171Z,0
2017-11-17T02:07:23.195Z,0
2017-11-17T02:08:36.225Z,0
2017-11-17T02:09:49.246Z,0
2017-11-17T02:11:02.196Z,0
2017-11-17T02:12:14.266Z,0
2017-11-17T02:13:27.267Z,0
2017-11-17T02:14:40.264Z,0
2017-11-17T02:15:52.792Z,0
2017-11-17T02:17:05.313Z,0
2017-11-17T02:18:18.339Z,0
2017-11-17T02:19:31.341Z,0
2017-11-17T02:20:43.897Z,0
2017-11-17T02:21:57.145Z,0
2017-11-17T02:23:10.133Z,0
2017-11-17T02:24:23.082Z,0
2017-11-17T02:25:36.117Z,0
2017-11-17T02:26:49.156Z,0
2017-11-17T02:28:01.723Z,0
2017-11-17T02:29:14.311Z,0
2017-11-17T02:30:27.316Z,0
2017-11-17T02:31:40.333Z,0
2017-11-17T02:32:53.393Z,0
2017-11-17T02:34:06.419Z,0
2017-11-17T02:35:19.003Z,0
2017-11-17T02:36:32.045Z,0
2017-11-17T02:37:45.101Z,0
2017-11-17T02:38:57.182Z,0
2017-11-17T02:40:10.231Z,0
2017-11-17T02:41:23.217Z,0
2017-11-17T02:42:36.256Z,0
2017-11-17T02:43:49.289Z,0
2017-11-17T02:45:01.807Z,0
2017-11-17T02:46:14.340Z,0
2017-11-17T02:47:27.429Z,0
2017-11-17T02:48:40.432Z,0
2017-11-17T02:49:53.441Z,0
2017-11-17T02:51:06.469Z,0
2017-11-17T02:52:19.490Z,0
2017-11-17T02:53:32.021Z,0
2017-11-17T02:54:44.106Z,0
2017-11-17T02:55:57.166Z,0
2017-11-17T02:57:09.664Z,0
2017-11-17T02:58:21.713Z,0
2017-11-17T02:59:34.722Z,0
2017-11-17T03:00:47.269Z,0
2017-11-17T03:02:00.244Z,0
2017-11-17T03:03:13.300Z,0
2017-11-17T03:04:26.510Z,0
2017-11-17T03:05:39.501Z,0
2017-11-17T03:06:52.487Z,0
2017-11-17T03:08:05.511Z,0
2017-11-17T03:09:18.506Z,0
2017-11-17T03:10:31.508Z,0
2017-11-17T03:11:44.480Z,0
2017-11-17T03:12:57.496Z,0
2017-11-17T03:14:10.031Z,0
2017-11-17T03:15:23.036Z,0
2017-11-17T03:16:36.031Z,0
2017-11-17T03:17:48.704Z,0
2017-11-17T03:19:01.698Z,0
2017-11-17T03:20:14.666Z,0
2017-11-17T03:21:27.701Z,0
2017-11-17T03:22:40.702Z,0
2017-11-17T03:23:53.712Z,0
2017-11-17T03:25:06.707Z,0
2017-11-17T03:26:19.731Z,0
2017-11-17T03:27:31.811Z,0
2017-11-17T03:28:44.335Z,0
2017-11-17T03:29:56.850Z,0
2017-11-17T03:31:09.419Z,0
2017-11-17T03:32:22.417Z,0
2017-11-17T03:33:35.395Z,0
2017-11-17T03:34:47.925Z,0
2017-11-17T03:36:00.941Z,0
2017-11-17T03:37:13.920Z,0
2017-11-17T03:38:26.917Z,0
2017-11-17T03:39:39.475Z,0
2017-11-17T03:40:52.480Z,0
2017-11-17T03:42:04.995Z,0
2017-11-17T03:43:17.562Z,0
2017-11-17T03:44:30.714Z,0
2017-11-17T03:45:43.750Z,0
2017-11-17T03:46:56.269Z,0
2017-11-17T03:48:09.343Z,0
2017-11-17T03:49:21.389Z,0
2017-11-17T03:50:33.975Z,0
2017-11-17T03:51:46.548Z,0
2017-11-17T03:52:59.556Z,0
2017-11-17T03:54:12.554Z,0
2017-11-17T03:55:25.619Z,0
2017-11-17T03:56:38.621Z,0
2017-11-17T03:57:51.146Z,0
2017-11-17T03:59:04.125Z,0
2017-11-17T04:00:17.138Z,0
2017-11-17T04:01:30.207Z,0
2017-11-17T04:02:43.265Z,0
2017-11-17T04:03:56.261Z,0
2017-11-17T04:05:08.843Z,0
2017-11-17T04:06:21.861Z,0
2017-11-17T04:07:34.890Z,0
2017-11-17T04:08:48.076Z,0
2017-11-17T04:10:01.081Z,0
2017-11-17T04:11:13.579Z,0
2017-11-17T04:12:26.593Z,0
2017-11-17T04:13:39.131Z,0
2017-11-17T04:14:52.143Z,0
2017-11-17T04:16:05.132Z,0
2017-11-17T04:17:18.138Z,0
2017-11-17T04:18:31.134Z,0
2017-11-17T04:19:43.631Z,0
2017-11-17T04:20:56.644Z,0
2017-11-17T04:22:08.726Z,0
2017-11-17T04:23:21.730Z,0
2017-11-17T04:24:34.754Z,0
2017-11-17T04:25:47.738Z,0
2017-11-17T04:27:00.732Z,0
2017-11-17T04:28:13.287Z,0
2017-11-17T04:29:26.273Z,0
2017-11-17T04:30:38.334Z,0
2017-11-17T04:31:51.347Z,0
2017-11-17T04:33:04.315Z,0
2017-11-17T04:34:17.315Z,0
2017-11-17T04:35:30.331Z,0
2017-11-17T04:36:43.342Z,0
2017-11-17T04:37:56.333Z,0
2017-11-17T04:39:08.854Z,0
2017-11-17T04:40:21.835Z,0
2017-11-17T04:41:34.833Z,0
2017-11-17T04:42:47.365Z,0
2017-11-17T04:44:00.385Z,0
2017-11-17T04:45:13.395Z,0
2017-11-17T04:46:25.905Z,0
2017-11-17T04:47:38.903Z,0
2017-11-17T04:48:51.873Z,0
2017-11-17T04:50:04.897Z,0
2017-11-17T04:51:17.890Z,0
2017-11-17T04:52:30.902Z,0
2017-11-17T04:53:43.923Z,0
2017-11-17T04:54:56.959Z,0
2017-11-17T04:56:09.918Z,0
2017-11-17T04:57:21.988Z,0
2017-11-17T04:58:35.017Z,0
2017-11-17T04:59:47.719Z,0
2017-11-17T05:01:02.162Z,0
2017-11-17T05:02:15.679Z,0
2017-11-17T05:03:29.431Z,0
2017-11-17T05:04:42.431Z,0
2017-11-17T05:05:54.958Z,0
2017-11-17T05:07:07.740Z,0
2017-11-17T05:08:20.550Z,0
2017-11-17T05:09:33.945Z,0
2017-11-17T05:10:47.841Z,0
2017-11-17T05:12:00.849Z,0
2017-11-17T05:13:18.613Z,0
2017-11-17T05:14:31.601Z,0
2017-11-17T05:15:45.038Z,0
2017-11-17T05:16:57.561Z,0
2017-11-17T05:18:10.579Z,0
2017-11-17T05:19:23.554Z,0
2017-11-17T05:20:36.101Z,0
2017-11-17T05:21:48.446Z,0
2017-11-17T05:23:01.443Z,0
2017-11-17T05:24:13.987Z,0
2017-11-17T05:25:26.659Z,0
2017-11-17T05:26:39.209Z,0
2017-11-17T05:27:51.471Z,0
2017-11-17T05:29:04.036Z,0
2017-11-17T05:30:16.592Z,0
2017-11-17T05:31:29.402Z,0
2017-11-17T05:32:42.442Z,0
2017-11-17T05:33:55.458Z,0
2017-11-17T05:35:08.433Z,0
2017-11-17T05:36:20.979Z,0
2017-11-17T05:37:33.984Z,0
2017-11-17T05:38:46.526Z,0
2017-11-17T05:39:59.543Z,0
2017-11-17T05:41:12.105Z,0
2017-11-17T05:42:24.650Z,0
2017-11-17T05:43:36.710Z,0
2017-11-17T05:44:49.316Z,0
2017-11-17T05:46:01.850Z,0
2017-11-17T05:47:14.844Z,0
2017-11-17T05:48:27.869Z,0
2017-11-17T05:49:40.860Z,0
2017-11-17T05:50:53.852Z,0
2017-11-17T05:52:06.852Z,0
2017-11-17T05:53:19.656Z,0
2017-11-17T05:54:32.668Z,0
2017-11-17T05:55:45.720Z,0
2017-11-17T05:56:58.242Z,0
2017-11-17T05:58:10.781Z,0
2017-11-17T05:59:23.818Z,0
2017-11-17T06:00:36.341Z,0
2017-11-17T06:01:48.890Z,0
2017-11-17T06:03:02.113Z,0
2017-11-17T06:04:14.627Z,0
2017-11-17T06:05:27.599Z,0
2017-11-17T06:06:40.594Z,0
2017-11-17T06:07:53.588Z,0
2017-11-17T06:09:06.599Z,0
2017-11-17T06:10:19.595Z,0
2017-11-17T06:11:32.112Z,0
2017-11-17T06:12:44.641Z,0
2017-11-17T06:13:57.604Z,0
2017-11-17T06:15:10.662Z,0
2017-11-17T06:16:23.217Z,0
2017-11-17T06:17:36.202Z,0
2017-11-17T06:18:48.745Z,0
2017-11-17T06:20:01.271Z,0
2017-11-17T06:21:14.306Z,0
2017-11-17T06:22:27.340Z,0
2017-11-17T06:23:40.336Z,0
2017-11-17T06:24:52.828Z,0
2017-11-17T06:26:05.845Z,0
2017-11-17T06:27:18.813Z,0
2017-11-17T06:28:31.761Z,0
2017-11-17T06:29:44.239Z,0
2017-11-17T06:30:57.247Z,0
2017-11-17T06:32:10.239Z,0
2017-11-17T06:33:23.242Z,0
2017-11-17T06:34:36.204Z,0
2017-11-17T06:35:48.759Z,0
2017-11-17T06:37:01.828Z,0
2017-11-17T06:38:14.866Z,0
2017-11-17T06:39:27.885Z,0
2017-11-17T06:40:40.925Z,0
2017-11-17T06:41:53.937Z,0
2017-11-17T06:43:06.464Z,0
2017-11-17T06:44:19.057Z,0
2017-11-17T06:45:31.578Z,0
2017-11-17T06:46:44.590Z,0
2017-11-17T06:47:57.573Z,0
2017-11-17T06:49:10.105Z,0
2017-11-17T06:50:22.658Z,0
2017-11-17T06:51:35.213Z,0
2017-11-17T06:52:48.262Z,0
2017-11-17T06:54:01.322Z,0
2017-11-17T06:55:14.326Z,0
2017-11-17T06:56:27.096Z,0
2017-11-17T06:57:40.074Z,0
2017-11-17T06:58:53.110Z,0
2017-11-17T07:00:06.158Z,0
2017-11-17T07:01:19.152Z,0
2017-11-17T07:02:31.192Z,0
2017-11-17T07:03:44.233Z,0
2017-11-17T07:04:57.221Z,0
2017-11-17T07:06:09.770Z,0
2017-11-17T07:07:22.793Z,0
2017-11-17T07:08:35.354Z,0
2017-11-17T07:09:48.576Z,0
2017-11-17T07:11:01.074Z,0
2017-11-17T07:12:14.065Z,0
2017-11-17T07:13:27.049Z,0
2017-11-17T07:14:40.057Z,0
2017-11-17T07:15:53.098Z,0
2017-11-17T07:17:06.171Z,0
2017-11-17T07:18:18.741Z,0
2017-11-17T07:19:31.722Z,0
2017-11-17T07:20:44.728Z,0
2017-11-17T07:21:57.295Z,0
2017-11-17T07:23:10.307Z,0
2017-11-17T07:24:23.297Z,0
2017-11-17T07:25:35.862Z,0
2017-11-17T07:26:49.086Z,0
2017-11-17T07:28:02.072Z,0
2017-11-17T07:29:14.598Z,0
2017-11-17T07:30:27.112Z,0
2017-11-17T07:31:40.107Z,0
2017-11-17T07:32:52.657Z,0
2017-11-17T07:34:05.176Z,0
2017-11-17T07:35:17.729Z,0
2017-11-17T07:36:30.688Z,0
2017-11-17T07:37:43.712Z,0
2017-11-17T07:38:56.764Z,0
2017-11-17T07:40:09.794Z,0
2017-11-17T07:41:22.350Z,0
2017-11-17T07:42:35.371Z,0
2017-11-17T07:43:47.890Z,0
2017-11-17T07:45:00.829Z,0
2017-11-17T07:46:13.891Z,0
2017-11-17T07:47:26.663Z,0
2017-11-17T07:48:38.721Z,0
2017-11-17T07:49:51.738Z,0
2017-11-17T07:51:04.730Z,0
2017-11-17T07:52:17.244Z,0
2017-11-17T07:53:28.848Z,0
2017-11-17T07:54:41.406Z,0
2017-11-17T07:55:54.404Z,4
2017-11-17T07:57:07.399Z,4
2017-11-17T07:58:19.918Z,4
2017-11-17T07:59:32.225Z,4
2017-11-17T08:00:44.794Z,8
2017-11-17T08:01:57.847Z,8
2017-11-17T08:03:10.934Z,12
2017-11-17T08:04:23.491Z,12
2017-11-17T08:05:36.509Z,12
2017-11-17T08:06:49.525Z,12
2017-11-17T08:08:02.083Z,16
2017-11-17T08:09:14.188Z,20
2017-11-17T08:10:26.718Z,20
2017-11-17T08:11:39.723Z,24
2017-11-17T08:12:52.226Z,20
2017-11-17T08:14:05.227Z,28
2017-11-17T08:15:18.270Z,28
2017-11-17T08:16:31.260Z,32
2017-11-17T08:17:43.804Z,32
2017-11-17T08:18:56.795Z,36
2017-11-17T08:20:09.799Z,44
2017-11-17T08:21:22.813Z,56
2017-11-17T08:22:35.809Z,64
2017-11-17T08:23:48.389Z,72
2017-11-17T08:25:01.404Z,76
2017-11-17T08:26:13.899Z,80
2017-11-17T08:27:26.405Z,84
2017-11-17T08:28:39.370Z,88
2017-11-17T08:29:52.365Z,96
2017-11-17T08:31:05.415Z,104
2017-11-17T08:32:17.941Z,112
2017-11-17T08:33:30.991Z,116
2017-11-17T08:34:43.479Z,120
2017-11-17T08:35:56.499Z,120
2017-11-17T08:37:09.519Z,120
2017-11-17T08:38:22.113Z,116
2017-11-17T08:39:35.117Z,112
2017-11-17T08:40:47.652Z,112
2017-11-17T08:42:00.641Z,116
2017-11-17T08:43:13.683Z,116
2017-11-17T08:44:26.747Z,132
2017-11-17T08:45:39.745Z,148
2017-11-17T08:46:52.784Z,168
2017-11-17T08:48:05.774Z,184
2017-11-17T08:49:18.783Z,204
2017-11-17T08:50:32.001Z,232
2017-11-17T08:51:45.035Z,268
2017-11-17T08:52:58.077Z,304
2017-11-17T08:54:10.590Z,336
2017-11-17T08:55:22.657Z,368
2017-11-17T08:56:35.676Z,408
2017-11-17T08:57:48.665Z,460
2017-11-17T08:59:01.652Z,512
2017-11-17T09:00:14.618Z,572
2017-11-17T09:01:27.161Z,624
2017-11-17T09:02:39.695Z,696
2017-11-17T09:03:52.668Z,768
2017-11-17T09:05:05.191Z,856
2017-11-17T09:06:18.188Z,952
2017-11-17T09:07:30.748Z,1064
2017-11-17T09:08:43.730Z,1196
2017-11-17T09:09:56.257Z,1348
2017-11-17T09:11:08.817Z,1520
2017-11-17T09:12:21.837Z,1692
2017-11-17T09:13:34.859Z,1884
2017-11-17T09:14:47.442Z,2092
2017-11-17T09:16:00.456Z,2320
2017-11-17T09:17:13.421Z,2600
2017-11-17T09:18:25.993Z,2936
2017-11-17T09:19:39.035Z,3356
2017-11-17T09:20:52.131Z,3824
2017-11-17T09:22:05.175Z,4332
2017-11-17T09:23:18.190Z,4832
2017-11-17T09:24:31.178Z,5368
2017-11-17T09:25:44.173Z,5948
2017-11-17T09:26:56.212Z,6560
2017-11-17T09:28:08.744Z,7212
2017-11-17T09:29:21.751Z,7828
2017-11-17T09:30:34.327Z,8408
2017-11-17T09:31:47.361Z,8896
2017-11-17T09:32:59.909Z,9264
2017-11-17T09:34:11.978Z,9512
2017-11-17T09:35:24.946Z,9612
2017-11-17T09:36:37.561Z,9596
2017-11-17T09:37:50.518Z,9576
2017-11-17T09:39:03.065Z,9584
2017-11-17T09:40:15.173Z,9476
2017-11-17T09:41:28.411Z,9320
2017-11-17T09:42:41.409Z,9228
2017-11-17T09:43:54.455Z,9236
2017-11-17T09:45:07.018Z,9172
2017-11-17T09:46:20.031Z,8968
2017-11-17T09:47:33.118Z,8804
2017-11-17T09:48:45.667Z,8848
2017-11-17T09:49:58.683Z,9092
2017-11-17T09:51:11.734Z,9620
2017-11-17T09:52:24.242Z,10232
2017-11-17T09:53:37.248Z,10756
2017-11-17T09:54:50.229Z,11060
2017-11-17T09:56:02.749Z,11152
2017-11-17T09:57:15.314Z,11072
2017-11-17T09:58:27.830Z,10896
2017-11-17T09:59:40.361Z,10712
2017-11-17T10:00:53.370Z,10576
2017-11-17T10:02:05.893Z,10428
2017-11-17T10:03:18.890Z,10260
2017-11-17T10:04:31.888Z,10072
2017-11-17T10:05:44.419Z,10028
2017-11-17T10:06:57.494Z,10200
2017-11-17T10:08:10.474Z,10476
2017-11-17T10:09:23.012Z,10796
2017-11-17T10:10:35.551Z,11196
2017-11-17T10:11:48.549Z,11960
2017-11-17T10:13:01.612Z,12480
2017-11-17T10:14:14.811Z,12908
2017-11-17T10:15:27.841Z,13244
2017-11-17T10:16:40.371Z,13540
2017-11-17T10:17:53.380Z,13936
2017-11-17T10:19:06.384Z,14424
2017-11-17T10:20:18.942Z,14784
2017-11-17T10:21:31.003Z,14952
2017-11-17T10:22:44.111Z,14956
2017-11-17T10:23:57.114Z,14948
2017-11-17T10:25:10.127Z,14952
2017-11-17T10:26:23.100Z,14940
2017-11-17T10:27:36.093Z,14856
2017-11-17T10:28:48.666Z,14836
2017-11-17T10:30:00.792Z,14892
2017-11-17T10:31:13.319Z,15064
2017-11-17T10:32:26.322Z,15264
2017-11-17T10:33:38.868Z,15540
2017-11-17T10:34:51.859Z,16048
2017-11-17T10:36:04.389Z,17024
2017-11-17T10:37:16.948Z,18048
2017-11-17T10:38:29.943Z,19040
2017-11-17T10:39:42.966Z,19840
2017-11-17T10:40:55.486Z,20256
2017-11-17T10:42:08.030Z,20704
2017-11-17T10:43:21.044Z,21408
2017-11-17T10:44:34.020Z,22528
2017-11-17T10:45:47.031Z,23744
2017-11-17T10:47:00.023Z,24896
2017-11-17T10:48:12.990Z,27136
2017-11-17T10:49:26.052Z,29056
2017-11-17T10:50:39.098Z,30976
2017-11-17T10:51:52.313Z,33696
2017-11-17T10:53:05.326Z,35488
2017-11-17T10:54:18.352Z,40352
2017-11-17T10:55:31.312Z,41888
2017-11-17T10:56:44.297Z,38144
2017-11-17T10:57:57.335Z,47680
2017-11-17T10:59:10.360Z,35104
2017-11-17T11:00:22.910Z,34272
2017-11-17T11:01:35.893Z,34112
2017-11-17T11:02:48.896Z,34016
2017-11-17T11:04:01.905Z,36384
2017-11-17T11:05:14.650Z,33216
2017-11-17T11:06:27.189Z,30784
2017-11-17T11:07:40.235Z,28672
2017-11-17T11:08:53.271Z,26784
2017-11-17T11:10:06.323Z,24608
2017-11-17T11:11:19.355Z,22432
2017-11-17T11:12:32.372Z,20064
2017-11-17T11:13:44.938Z,18880
2017-11-17T11:14:57.950Z,18304
2017-11-17T11:16:10.517Z,18208
2017-11-17T11:17:23.540Z,18656
2017-11-17T11:18:36.084Z,19584
2017-11-17T11:19:49.107Z,20832
2017-11-17T11:21:02.116Z,22528
2017-11-17T11:22:14.665Z,24160
2017-11-17T11:23:27.680Z,25472
2017-11-17T11:24:40.233Z,27072
2017-11-17T11:25:52.985Z,28416
2017-11-17T11:27:06.052Z,29440
2017-11-17T11:28:19.040Z,30656
2017-11-17T11:29:32.077Z,31680
2017-11-17T11:30:44.600Z,32800
2017-11-17T11:31:57.122Z,33856
2017-11-17T11:33:10.139Z,34784
2017-11-17T11:34:23.138Z,36448
2017-11-17T11:35:36.157Z,38656
2017-11-17T11:36:48.638Z,42432
2017-11-17T11:38:01.639Z,72064
2017-11-17T11:39:14.811Z,55872
2017-11-17T11:40:27.778Z,60832
2017-11-17T11:41:40.306Z,64640
2017-11-17T11:42:52.405Z,62784
2017-11-17T11:44:04.951Z,61696
2017-11-17T11:45:17.469Z,61152
2017-11-17T11:46:30.497Z,58336
2017-11-17T11:47:43.519Z,51936
2017-11-17T11:48:56.521Z,49696
2017-11-17T11:50:09.491Z,46240
2017-11-17T11:51:22.536Z,51072
2017-11-17T11:52:35.539Z,51328
2017-11-17T11:53:48.593Z,47872
2017-11-17T11:55:01.621Z,46624
2017-11-17T11:56:14.657Z,51264
2017-11-17T11:57:27.687Z,55936
2017-11-17T11:58:40.224Z,56768
2017-11-17T11:59:53.224Z,53056
2017-11-17T12:01:06.269Z,45440
2017-11-17T12:02:18.416Z,44896
2017-11-17T12:03:31.416Z,44576
2017-11-17T12:04:44.425Z,46016
2017-11-17T12:05:56.943Z,45120
2017-11-17T12:07:09.948Z,47392
2017-11-17T12:08:23.003Z,47616
2017-11-17T12:09:35.076Z,54720
2017-11-17T12:10:48.107Z,52544
2017-11-17T12:12:00.674Z,73120
2017-11-17T12:13:13.712Z,72288
2017-11-17T12:14:26.290Z,54752
2017-11-17T12:15:39.289Z,73184
2017-11-17T12:16:51.833Z,64800
2017-11-17T12:18:04.779Z,57184
2017-11-17T12:19:17.801Z,54048
2017-11-17T12:20:30.805Z,60064
2017-11-17T12:21:43.354Z,56736
2017-11-17T12:22:56.400Z,58112
2017-11-17T12:24:09.509Z,56192
2017-11-17T12:25:22.509Z,65888
2017-11-17T12:26:35.520Z,57152
2017-11-17T12:27:48.068Z,46240
2017-11-17T12:29:01.128Z,40416
2017-11-17T12:30:14.105Z,41952
2017-11-17T12:31:25.686Z,45792
2017-11-17T12:32:38.295Z,43680
2017-11-17T12:33:50.811Z,42304
2017-11-17T12:35:02.884Z,41152
2017-11-17T12:36:15.470Z,41984
2017-11-17T12:37:28.228Z,62496
2017-11-17T12:38:41.222Z,72352
2017-11-17T12:39:53.787Z,75296
2017-11-17T12:41:06.461Z,75264
2017-11-17T12:42:19.484Z,52256
2017-11-17T12:43:32.535Z,51168
2017-11-17T12:44:45.564Z,42816
2017-11-17T12:46:00.117Z,61696
2017-11-17T12:47:12.215Z,59136
2017-11-17T12:48:25.261Z,56576
2017-11-17T12:49:38.263Z,60032
2017-11-17T12:50:51.240Z,63328
2017-11-17T12:52:04.274Z,63488
2017-11-17T12:53:17.522Z,61088
2017-11-17T12:54:30.531Z,59904
2017-11-17T12:55:43.538Z,55456
2017-11-17T12:56:56.107Z,62336
2017-11-17T12:58:09.136Z,56000
2017-11-17T12:59:22.150Z,55808
2017-11-17T13:00:35.143Z,54208
2017-11-17T13:01:47.706Z,46336
2017-11-17T13:03:00.707Z,55040
2017-11-17T13:04:13.268Z,56640
2017-11-17T13:05:26.269Z,56640
2017-11-17T13:06:39.277Z,59360
2017-11-17T13:07:52.294Z,62432
2017-11-17T13:09:04.850Z,70368
2017-11-17T13:10:17.866Z,55328
2017-11-17T13:11:30.901Z,68608
2017-11-17T13:12:43.965Z,59072
2017-11-17T13:13:56.550Z,57120
2017-11-17T13:15:09.131Z,52896
2017-11-17T13:16:21.731Z,52288
2017-11-17T13:17:34.724Z,55584
2017-11-17T13:18:47.284Z,55520
2017-11-17T13:20:00.301Z,52288
2017-11-17T13:21:12.854Z,50880
2017-11-17T13:22:25.648Z,55744
2017-11-17T13:23:38.210Z,54944
2017-11-17T13:24:50.795Z,64256
2017-11-17T13:26:03.838Z,77376
2017-11-17T13:27:16.848Z,83136
2017-11-17T13:28:29.924Z,72864
2017-11-17T13:29:42.919Z,99392
2017-11-17T13:30:55.517Z,57984
2017-11-17T13:32:08.635Z,92800
2017-11-17T13:33:20.740Z,98048
2017-11-17T13:34:33.768Z,108032
2017-11-17T13:35:45.350Z,113152
2017-11-17T13:36:57.874Z,117408
2017-11-17T13:38:10.933Z,86688
2017-11-17T13:39:23.081Z,76000
2017-11-17T13:40:35.675Z,73056
2017-11-17T13:41:48.688Z,63072
2017-11-17T13:43:01.241Z,60576
2017-11-17T13:44:13.309Z,66976
2017-11-17T13:45:26.300Z,72032
2017-11-17T13:46:38.837Z,65088
2017-11-17T13:47:51.889Z,66912
2017-11-17T13:49:04.466Z,71424
2017-11-17T13:50:17.502Z,62336
2017-11-17T13:51:30.536Z,57920
2017-11-17T13:52:43.563Z,53248
2017-11-17T13:53:56.112Z,49600
2017-11-17T13:55:08.674Z,48064
2017-11-17T13:56:21.212Z,48000
2017-11-17T13:57:34.206Z,48640
2017-11-17T13:58:47.203Z,49440
2017-11-17T14:00:00.255Z,49920
2017-11-17T14:01:12.827Z,51040
2017-11-17T14:02:25.839Z,52160
2017-11-17T14:03:38.870Z,53696
2017-11-17T14:04:51.401Z,53408
2017-11-17T14:06:04.449Z,53248
2017-11-17T14:07:17.561Z,53408
2017-11-17T14:08:30.138Z,55232
2017-11-17T14:09:42.676Z,56800
2017-11-17T14:10:55.890Z,57408
2017-11-17T14:12:08.420Z,57728
2017-11-17T14:13:20.975Z,57504
2017-11-17T14:14:33.130Z,57824
2017-11-17T14:15:45.695Z,58848
2017-11-17T14:16:58.702Z,59264
2017-11-17T14:18:11.730Z,59168
2017-11-17T14:19:24.769Z,58016
2017-11-17T14:20:37.298Z,57440
2017-11-17T14:21:50.306Z,57536
2017-11-17T14:23:03.353Z,59168
2017-11-17T14:24:16.303Z,61632
2017-11-17T14:25:28.887Z,61952
2017-11-17T14:26:41.398Z,60064
2017-11-17T14:27:53.931Z,58912
2017-11-17T14:29:06.938Z,56896
2017-11-17T14:30:19.966Z,55232
2017-11-17T14:31:32.518Z,54656
2017-11-17T14:32:45.107Z,54624
2017-11-17T14:33:57.686Z,54048
2017-11-17T14:35:10.211Z,52928
2017-11-17T14:36:23.191Z,52864
2017-11-17T14:37:35.736Z,50240
2017-11-17T14:38:48.759Z,48224
2017-11-17T14:40:01.980Z,46368
2017-11-17T14:41:15.011Z,44832
2017-11-17T14:42:28.030Z,43808
2017-11-17T14:43:41.052Z,43104
2017-11-17T14:44:54.092Z,42880
2017-11-17T14:46:07.094Z,43200
2017-11-17T14:47:19.699Z,44096
2017-11-17T14:48:32.727Z,45376
2017-11-17T14:49:45.721Z,46144
2017-11-17T14:50:58.753Z,47360
2017-11-17T14:52:11.793Z,47808
2017-11-17T14:53:24.348Z,45952
2017-11-17T14:54:37.353Z,43456
2017-11-17T14:55:49.854Z,41344
2017-11-17T14:57:02.893Z,39520
2017-11-17T14:58:14.952Z,38272
2017-11-17T14:59:27.967Z,37600
2017-11-17T15:00:40.527Z,37472
2017-11-17T15:01:53.089Z,37728
2017-11-17T15:03:05.624Z,38144
2017-11-17T15:04:18.834Z,38336
2017-11-17T15:05:31.826Z,38464
2017-11-17T15:06:44.825Z,38720
2017-11-17T15:07:57.834Z,39296
2017-11-17T15:09:11.064Z,40192
2017-11-17T15:10:24.077Z,41184
2017-11-17T15:11:37.124Z,41888
2017-11-17T15:12:49.864Z,41792
2017-11-17T15:14:02.433Z,41568
2017-11-17T15:15:15.412Z,41632
2017-11-17T15:16:28.475Z,41952
2017-11-17T15:17:41.505Z,42336
2017-11-17T15:18:54.549Z,42912
2017-11-17T15:20:06.649Z,43616
2017-11-17T15:21:19.887Z,44032
2017-11-17T15:22:32.906Z,43808
2017-11-17T15:23:45.921Z,43136
2017-11-17T15:24:58.275Z,41984
2017-11-17T15:26:09.909Z,40512
2017-11-17T15:27:22.995Z,39616
2017-11-17T15:28:35.518Z,39104
2017-11-17T15:29:48.213Z,38816
2017-11-17T15:31:01.245Z,38304
2017-11-17T15:32:13.787Z,37760
2017-11-17T15:33:26.359Z,37280
2017-11-17T15:34:38.454Z,37120
2017-11-17T15:35:50.993Z,37152
2017-11-17T15:37:04.003Z,37440
2017-11-17T15:38:16.047Z,37696
2017-11-17T15:39:28.863Z,37920
2017-11-17T15:40:41.604Z,38368
2017-11-17T15:41:54.629Z,39008
2017-11-17T15:43:07.628Z,39968
2017-11-17T15:44:20.142Z,41120
2017-11-17T15:45:33.198Z,42432
2017-11-17T15:46:46.448Z,44224
2017-11-17T15:47:59.478Z,46144
2017-11-17T15:49:12.460Z,48320
2017-11-17T15:50:25.053Z,52064
2017-11-17T15:51:38.077Z,53216
2017-11-17T15:52:51.110Z,60768
2017-11-17T15:54:04.177Z,58144
2017-11-17T15:55:16.706Z,61312
2017-11-17T15:56:29.734Z,58112
2017-11-17T15:57:42.289Z,60192
2017-11-17T15:58:54.332Z,63680
2017-11-17T16:00:07.572Z,59808
2017-11-17T16:01:19.663Z,60096
2017-11-17T16:02:33.588Z,58880
2017-11-17T16:03:46.602Z,62176
2017-11-17T16:04:59.625Z,54912
2017-11-17T16:06:12.196Z,52096
2017-11-17T16:07:24.753Z,50720
2017-11-17T16:08:37.746Z,50144
2017-11-17T16:09:50.976Z,50336
2017-11-17T16:11:03.993Z,49056
2017-11-17T16:12:16.542Z,48384
2017-11-17T16:13:29.119Z,48320
2017-11-17T16:14:42.124Z,48640
2017-11-17T16:15:55.122Z,49376
2017-11-17T16:17:08.172Z,49792
2017-11-17T16:18:21.205Z,50272
2017-11-17T16:19:34.214Z,50848
2017-11-17T16:20:47.235Z,51392
2017-11-17T16:21:59.777Z,51744
2017-11-17T16:23:12.786Z,52064
2017-11-17T16:24:25.345Z,52832
2017-11-17T16:25:38.334Z,54144
2017-11-17T16:26:51.340Z,55136
2017-11-17T16:28:04.353Z,57408
2017-11-17T16:29:17.421Z,56320
2017-11-17T16:30:30.464Z,58528
2017-11-17T16:31:42.991Z,58752
2017-11-17T16:32:55.525Z,60160
2017-11-17T16:34:08.093Z,56096
2017-11-17T16:35:21.119Z,51520
2017-11-17T16:36:34.150Z,48832
2017-11-17T16:37:47.392Z,47104
2017-11-17T16:39:00.389Z,45888
2017-11-17T16:40:13.566Z,44672
2017-11-17T16:41:26.117Z,43616
2017-11-17T16:42:39.118Z,42720
2017-11-17T16:43:52.094Z,41504
2017-11-17T16:45:05.110Z,40256
2017-11-17T16:46:18.448Z,39136
2017-11-17T16:47:31.053Z,38304